Time;durP1;ratioP1;P1;durP2;ratioP2;P2;SDS_P1;SDS_P2;PMS_P1;PMS_P2;Temp;Humidity;BMP_temperature;BMP_pressure;BME280_temperature;BME280_humidity;BME280_pressure;Samples;Min_cycle;Max_cycle;Signal;HPM_P1;HPM_P2
2023/06/29 00:01:34;;;;;;;3.73;0.70;;;16.20;99.90;;;;;;5074419;28;20176;-67
2023/06/29 00:04:02;;;;;;;1.23;0.63;;;16.20;99.90;;;;;;5074300;28;20235;-71
2023/06/29 00:06:32;;;;;;;0.60;0.60;;;16.50;99.90;;;;;;5074665;28;20185;-72
2023/06/29 00:09:00;;;;;;;3.23;0.70;;;16.40;99.90;;;;;;5074572;28;20179;-70
2023/06/29 00:11:27;;;;;;;0.47;0.47;;;16.70;99.90;;;;;;5074517;28;20640;-68
2023/06/29 00:13:55;;;;;;;0.70;0.53;;;17.00;99.90;;;;;;5074534;28;20215;-68
2023/06/29 00:16:22;;;;;;;0.77;0.70;;;16.90;99.90;;;;;;5074527;28;20646;-72
2023/06/29 00:18:54;;;;;;;3.23;0.50;;;16.80;99.90;;;;;;5073838;28;20332;-69
2023/06/29 00:21:21;;;;;;;0.50;0.50;;;16.90;99.90;;;;;;5074030;28;20176;-72
2023/06/29 00:23:49;;;;;;;0.63;0.50;;;16.60;99.90;;;;;;5074615;28;20690;-68
2023/06/29 00:26:16;;;;;;;2.93;0.67;;;16.70;99.90;;;;;;5074073;28;20176;-68
2023/06/29 00:28:43;;;;;;;0.60;0.50;;;16.70;99.90;;;;;;5073467;28;20180;-71
2023/06/29 00:31:11;;;;;;;1.13;0.70;;;16.80;99.90;;;;;;5074312;28;20637;-68
2023/06/29 00:33:38;;;;;;;1.03;0.63;;;16.70;99.90;;;;;;5055836;28;20241;-68
2023/06/29 00:36:06;;;;;;;0.40;0.40;;;17.10;99.90;;;;;;5072624;28;20191;-70
2023/06/29 00:38:33;;;;;;;0.70;0.60;;;16.70;99.90;;;;;;5072155;28;20197;-68
2023/06/29 00:41:00;;;;;;;0.57;0.50;;;17.00;99.90;;;;;;5072459;28;20176;-68
2023/06/29 00:43:27;;;;;;;0.63;0.50;;;17.00;99.90;;;;;;5052439;28;20187;-71
2023/06/29 00:45:55;;;;;;;0.80;0.50;;;17.00;99.90;;;;;;5052454;28;20169;-68
2023/06/29 00:48:22;;;;;;;0.60;0.60;;;16.90;99.90;;;;;;5052533;28;20322;-69
2023/06/29 00:50:50;;;;;;;0.87;0.50;;;17.10;99.90;;;;;;5061473;28;20199;-73
2023/06/29 00:53:17;;;;;;;1.57;0.50;;;17.30;99.60;;;;;;5071579;28;20222;-69
2023/06/29 00:55:45;;;;;;;1.17;0.40;;;17.00;99.90;;;;;;5072184;28;20514;-73
2023/06/29 00:58:12;;;;;;;0.40;0.40;;;17.30;98.20;;;;;;5072268;28;20183;-69
2023/06/29 01:00:40;;;;;;;1.33;0.47;;;17.20;96.00;;;;;;5070777;28;20180;-68
2023/06/29 01:03:09;;;;;;;0.50;0.50;;;17.10;98.00;;;;;;5071529;28;20532;-68
2023/06/29 01:05:36;;;;;;;0.50;0.50;;;17.10;98.70;;;;;;5071984;28;20180;-69
2023/06/29 01:08:20;;;;;;;0.77;0.50;;;17.40;94.70;;;;;;5072199;28;20172;-71
2023/06/29 01:10:49;;;;;;;0.40;0.40;;;17.20;94.40;;;;;;5051986;28;20259;-70
2023/06/29 01:13:18;;;;;;;0.63;0.50;;;17.30;93.40;;;;;;5069008;28;20294;-68
2023/06/29 01:15:47;;;;;;;3.63;0.60;;;17.50;94.50;;;;;;5072133;28;20723;-69
2023/06/29 01:18:16;;;;;;;0.77;0.57;;;17.50;92.60;;;;;;5073363;28;20230;-69
2023/06/29 01:20:49;;;;;;;0.40;0.40;;;17.40;92.60;;;;;;5073088;28;20182;-69
2023/06/29 01:23:27;;;;;;;0.77;0.50;;;17.30;92.30;;;;;;5073276;28;20189;-73
2023/06/29 01:25:58;;;;;;;0.30;0.30;;;17.40;94.70;;;;;;5073209;28;20172;-70
2023/06/29 01:28:25;;;;;;;0.97;0.37;;;17.70;92.40;;;;;;5073652;28;20540;-69
2023/06/29 01:30:53;;;;;;;0.50;0.50;;;18.30;88.50;;;;;;5073147;28;20172;-72
2023/06/29 01:33:23;;;;;;;1.37;0.50;;;18.90;84.30;;;;;;5072948;28;20214;-72
2023/06/29 01:35:57;;;;;;;0.50;0.50;;;18.30;79.50;;;;;;5071693;28;20616;-68
2023/06/29 01:38:33;;;;;;;0.93;0.60;;;18.00;84.40;;;;;;5073610;28;20168;-67
2023/06/29 01:41:04;;;;;;;0.67;0.47;;;18.00;84.60;;;;;;5073442;28;20188;-70
2023/06/29 01:43:33;;;;;;;0.90;0.43;;;18.00;78.30;;;;;;5052587;28;20660;-69
2023/06/29 01:46:00;;;;;;;1.10;0.50;;;17.70;75.80;;;;;;5053055;28;20180;-72
2023/06/29 01:48:28;;;;;;;0.43;0.43;;;17.90;79.40;;;;;;5059929;28;20219;-69
2023/06/29 01:50:55;;;;;;;1.70;0.40;;;18.30;75.70;;;;;;5073030;28;20218;-69
2023/06/29 01:53:23;;;;;;;0.50;0.40;;;18.70;73.00;;;;;;5072904;28;20222;-69
2023/06/29 01:55:50;;;;;;;0.50;0.50;;;18.70;69.40;;;;;;5072512;28;20182;-68
2023/06/29 01:58:17;;;;;;;1.23;0.60;;;18.70;72.30;;;;;;5070781;28;20183;-69
2023/06/29 02:00:45;;;;;;;1.67;0.50;;;18.90;67.40;;;;;;5072438;28;20569;-70
2023/06/29 02:03:12;;;;;;;0.33;0.33;;;19.40;71.20;;;;;;5071512;28;20287;-70
2023/06/29 02:05:39;;;;;;;0.50;0.50;;;19.30;64.50;;;;;;5072859;28;20257;-73
2023/06/29 02:08:07;;;;;;;3.13;0.50;;;19.00;61.60;;;;;;5072943;28;20644;-71
2023/06/29 02:10:34;;;;;;;0.97;0.50;;;19.00;66.40;;;;;;5072631;28;20190;-71
2023/06/29 02:13:01;;;;;;;0.90;0.50;;;19.00;61.60;;;;;;5052220;28;20213;-69
2023/06/29 02:15:29;;;;;;;0.50;0.40;;;19.00;63.80;;;;;;5071132;28;20180;-73
2023/06/29 02:17:56;;;;;;;0.50;0.50;;;19.10;64.80;;;;;;5070956;28;20230;-72
2023/06/29 02:20:23;;;;;;;0.70;0.50;;;19.30;62.20;;;;;;5071049;28;20184;-72
2023/06/29 02:22:51;;;;;;;1.07;0.40;;;19.60;61.20;;;;;;5057507;28;20335;-69
2023/06/29 02:25:18;;;;;;;0.40;0.40;;;19.60;54.70;;;;;;5070634;28;20176;-69
2023/06/29 02:27:46;;;;;;;0.87;0.50;;;19.30;52.60;;;;;;5070855;28;20191;-69
2023/06/29 02:30:14;;;;;;;2.40;0.50;;;19.60;52.00;;;;;;5070843;28;20178;-69
2023/06/29 02:32:41;;;;;;;0.67;0.50;;;19.20;51.30;;;;;;5070794;28;20268;-69
2023/06/29 02:35:09;;;;;;;0.40;0.40;;;19.30;51.70;;;;;;5070572;28;20184;-70
2023/06/29 02:37:36;;;;;;;0.40;0.40;;;19.50;54.90;;;;;;5069727;28;20645;-71
2023/06/29 02:40:04;;;;;;;0.30;0.30;;;19.10;46.80;;;;;;5070833;28;20183;-73
2023/06/29 02:42:32;;;;;;;0.77;0.40;;;18.60;44.80;;;;;;5070948;28;20231;-68
2023/06/29 02:44:59;;;;;;;0.57;0.50;;;19.10;46.80;;;;;;5070672;28;20245;-69
2023/06/29 02:47:28;;;;;;;0.90;0.80;;;19.10;48.60;;;;;;5070599;28;20176;-69
2023/06/29 02:49:55;;;;;;;0.53;0.50;;;19.20;50.50;;;;;;5070874;28;20547;-70
2023/06/29 02:52:23;;;;;;;0.63;0.50;;;19.40;49.80;;;;;;5074134;28;20195;-72
2023/06/29 02:54:50;;;;;;;4.10;0.53;;;19.20;47.20;;;;;;5071997;28;20325;-70
2023/06/29 02:57:17;;;;;;;0.40;0.40;;;19.30;49.40;;;;;;5075922;28;20677;-67
2023/06/29 02:59:45;;;;;;;1.33;0.40;;;19.60;48.10;;;;;;5074673;28;20172;-69
2023/06/29 03:02:12;;;;;;;0.77;0.30;;;19.30;46.70;;;;;;5074726;28;20630;-71
2023/06/29 03:04:40;;;;;;;0.40;0.40;;;19.30;45.10;;;;;;5076066;28;20214;-69
2023/06/29 03:07:07;;;;;;;0.73;0.47;;;19.40;46.00;;;;;;5075936;28;20541;-72
2023/06/29 03:09:34;;;;;;;0.43;0.43;;;19.70;46.10;;;;;;5075901;28;20645;-67
2023/06/29 03:12:02;;;;;;;0.60;0.40;;;20.00;44.10;;;;;;5076042;28;20175;-69
2023/06/29 03:14:29;;;;;;;0.93;0.40;;;20.20;41.40;;;;;;5075620;28;20214;-68
2023/06/29 03:16:56;;;;;;;3.37;0.50;;;20.40;44.40;;;;;;5075874;28;20230;-66
2023/06/29 03:19:24;;;;;;;0.30;0.30;;;20.40;45.40;;;;;;5075834;28;20581;-70
2023/06/29 03:21:51;;;;;;;0.57;0.30;;;20.70;43.30;;;;;;5075581;28;20546;-67
2023/06/29 03:24:18;;;;;;;0.40;0.40;;;20.40;42.60;;;;;;5074717;28;20180;-73
2023/06/29 03:26:46;;;;;;;0.20;0.20;;;20.60;42.20;;;;;;5057760;28;20660;-69
2023/06/29 03:29:13;;;;;;;0.60;0.30;;;20.80;38.20;;;;;;5073322;28;20189;-70
2023/06/29 03:31:40;;;;;;;1.47;0.50;;;20.20;40.40;;;;;;5073820;28;20176;-71
2023/06/29 03:34:08;;;;;;;0.40;0.40;;;19.60;42.90;;;;;;5073262;28;20229;-68
2023/06/29 03:36:35;;;;;;;0.40;0.40;;;19.20;41.70;;;;;;5073298;28;20197;-72
2023/06/29 03:39:03;;;;;;;1.17;0.50;;;19.30;42.80;;;;;;5073745;28;20188;-71
2023/06/29 03:41:31;;;;;;;0.43;0.40;;;19.60;44.80;;;;;;5073693;28;20228;-70
2023/06/29 03:43:58;;;;;;;0.50;0.50;;;19.50;42.40;;;;;;5073431;28;20550;-73
2023/06/29 03:46:25;;;;;;;0.53;0.40;;;19.50;42.70;;;;;;5073726;28;20167;-70
2023/06/29 03:48:53;;;;;;;0.60;0.40;;;20.00;44.20;;;;;;5073153;28;20219;-70
2023/06/29 03:51:20;;;;;;;1.23;0.30;;;20.10;45.40;;;;;;5073549;28;20177;-68
2023/06/29 03:53:47;;;;;;;0.60;0.60;;;19.90;40.60;;;;;;5073265;28;20219;-70
2023/06/29 03:56:15;;;;;;;0.53;0.47;;;19.50;42.10;;;;;;5071987;28;20211;-69
2023/06/29 03:58:42;;;;;;;0.37;0.30;;;19.20;42.70;;;;;;5072973;28;20665;-69
2023/06/29 04:01:10;;;;;;;0.60;0.60;;;19.20;41.50;;;;;;5073352;28;20196;-68
2023/06/29 04:03:37;;;;;;;0.97;0.40;;;19.10;42.50;;;;;;5072218;28;20173;-73
2023/06/29 04:06:04;;;;;;;0.70;0.40;;;19.10;44.80;;;;;;5073031;28;20207;-71
2023/06/29 04:08:32;;;;;;;1.27;0.60;;;19.00;43.40;;;;;;5072670;28;20211;-71
2023/06/29 04:11:00;;;;;;;2.20;0.57;;;18.90;42.70;;;;;;5073208;28;20174;-72
2023/06/29 04:13:27;;;;;;;0.93;0.57;;;19.20;43.30;;;;;;5073045;28;20299;-69
2023/06/29 04:15:54;;;;;;;1.33;0.50;;;19.10;43.70;;;;;;5072863;28;20180;-69
2023/06/29 04:18:22;;;;;;;1.20;0.50;;;19.20;44.10;;;;;;5072612;28;20269;-69
2023/06/29 04:20:50;;;;;;;0.73;0.50;;;18.80;41.90;;;;;;5072255;28;20194;-68
2023/06/29 04:23:17;;;;;;;0.57;0.30;;;19.00;43.90;;;;;;5072818;28;20529;-68
2023/06/29 04:25:44;;;;;;;1.03;0.50;;;19.10;42.20;;;;;;5059997;28;20195;-71
2023/06/29 04:28:12;;;;;;;0.53;0.50;;;19.20;45.10;;;;;;5072002;28;20229;-69
2023/06/29 04:30:44;;;;;;;0.93;0.60;;;19.20;44.00;;;;;;5073703;28;20231;-69
2023/06/29 04:33:14;;;;;;;0.40;0.40;;;19.00;41.70;;;;;;5074018;28;20620;-70
2023/06/29 04:35:45;;;;;;;0.80;0.50;;;18.90;43.00;;;;;;5073902;28;20183;-72
2023/06/29 04:38:13;;;;;;;0.57;0.40;;;18.90;43.60;;;;;;5074484;28;20180;-72
2023/06/29 04:40:42;;;;;;;0.70;0.40;;;19.30;44.40;;;;;;5074118;28;20168;-69
2023/06/29 04:43:09;;;;;;;0.90;0.40;;;18.90;41.10;;;;;;5073842;28;20184;-68
2023/06/29 04:45:37;;;;;;;1.17;0.50;;;18.50;41.60;;;;;;5055865;28;20183;-70
2023/06/29 04:48:04;;;;;;;1.70;0.60;;;18.20;42.20;;;;;;5063946;28;20198;-70
2023/06/29 04:50:35;;;;;;;1.20;0.60;;;18.40;43.70;;;;;;5062855;28;20710;-68
2023/06/29 04:53:12;;;;;;;0.60;0.60;;;18.50;43.40;;;;;;5071541;28;20201;-67
2023/06/29 04:55:40;;;;;;;1.17;0.50;;;18.50;42.70;;;;;;5072013;28;20181;-68
2023/06/29 04:58:07;;;;;;;0.50;0.50;;;18.50;43.70;;;;;;5070937;28;20270;-68
2023/06/29 05:00:35;;;;;;;0.63;0.57;;;18.30;43.30;;;;;;5071521;28;20218;-69
2023/06/29 05:03:02;;;;;;;0.80;0.50;;;18.20;44.70;;;;;;5071889;28;20633;-69
2023/06/29 05:05:29;;;;;;;1.57;0.57;;;18.30;42.80;;;;;;5071695;28;20175;-69
2023/06/29 05:07:57;;;;;;;2.20;0.60;;;18.10;43.70;;;;;;5071931;28;20273;-70
2023/06/29 05:10:24;;;;;;;0.67;0.50;;;18.00;43.90;;;;;;5071541;28;20184;-69
2023/06/29 05:12:52;;;;;;;1.80;0.60;;;17.90;43.80;;;;;;5071530;28;20190;-68
2023/06/29 05:15:19;;;;;;;0.80;0.50;;;17.80;42.70;;;;;;5071491;28;20176;-71
2023/06/29 05:17:47;;;;;;;1.63;1.00;;;17.60;43.50;;;;;;5070935;28;20676;-68
2023/06/29 05:20:17;;;;;;;1.40;0.80;;;17.60;43.10;;;;;;5071735;28;20175;-68
2023/06/29 05:22:45;;;;;;;3.50;0.70;;;17.40;43.70;;;;;;5071371;28;20220;-69
2023/06/29 05:25:14;;;;;;;2.20;0.80;;;17.10;44.70;;;;;;5070383;28;20184;-67
2023/06/29 05:27:44;;;;;;;1.90;0.60;;;17.00;45.60;;;;;;5071019;28;20351;-68
2023/06/29 05:30:13;;;;;;;2.50;1.00;;;17.10;46.90;;;;;;5071623;28;20176;-68
2023/06/29 05:32:40;;;;;;;2.40;1.87;;;16.80;45.90;;;;;;5071322;28;20555;-69
2023/06/29 05:35:07;;;;;;;0.87;0.53;;;16.60;47.40;;;;;;5071497;28;20329;-70
2023/06/29 05:37:35;;;;;;;1.00;0.60;;;16.30;46.60;;;;;;5071427;28;20172;-69
2023/06/29 05:40:02;;;;;;;1.37;0.77;;;16.00;50.30;;;;;;5071312;28;20176;-69
2023/06/29 05:42:29;;;;;;;1.10;0.70;;;15.80;49.80;;;;;;5071188;28;20180;-70
2023/06/29 05:44:58;;;;;;;0.80;0.70;;;15.50;51.50;;;;;;5071343;28;20180;-69
2023/06/29 05:47:26;;;;;;;4.20;0.73;;;15.20;53.50;;;;;;5071198;28;20224;-70
2023/06/29 05:49:53;;;;;;;0.70;0.63;;;15.10;55.40;;;;;;5071439;28;20180;-69
2023/06/29 05:52:21;;;;;;;3.73;0.80;;;14.90;56.70;;;;;;5070744;28;20207;-72
2023/06/29 05:54:49;;;;;;;1.57;0.70;;;14.80;56.70;;;;;;5070068;28;20265;-67
2023/06/29 05:57:16;;;;;;;3.20;1.40;;;14.60;58.50;;;;;;5071290;28;20179;-69
2023/06/29 05:59:43;;;;;;;2.67;0.90;;;14.50;58.50;;;;;;5071122;28;20174;-69
2023/06/29 06:02:10;;;;;;;4.03;0.70;;;14.40;60.40;;;;;;5070753;28;20188;-69
2023/06/29 06:04:38;;;;;;;0.90;0.60;;;14.40;60.70;;;;;;5071207;28;20724;-69
2023/06/29 06:07:05;;;;;;;1.83;0.90;;;14.30;62.90;;;;;;5071283;28;20189;-69
2023/06/29 06:09:32;;;;;;;0.70;0.60;;;14.20;64.20;;;;;;5071062;28;20222;-69
2023/06/29 06:12:00;;;;;;;2.90;1.60;;;14.20;64.80;;;;;;5070942;28;20270;-72
2023/06/29 06:14:27;;;;;;;2.73;1.10;;;14.20;67.50;;;;;;5071152;28;20700;-69
2023/06/29 06:16:55;;;;;;;2.70;1.33;;;14.00;68.10;;;;;;5070528;28;20318;-69
2023/06/29 06:19:22;;;;;;;1.87;0.90;;;14.00;70.20;;;;;;5071135;28;20550;-69
2023/06/29 06:21:49;;;;;;;3.57;2.20;;;13.90;71.40;;;;;;5070682;28;20186;-73
2023/06/29 06:24:17;;;;;;;2.20;1.27;;;13.80;75.30;;;;;;5071043;28;20859;-73
2023/06/29 06:26:44;;;;;;;2.33;1.50;;;13.80;75.40;;;;;;5074037;28;20179;-69
2023/06/29 06:29:11;;;;;;;4.83;1.67;;;13.80;76.80;;;;;;5074862;28;20273;-70
2023/06/29 06:31:39;;;;;;;1.40;1.30;;;13.70;79.70;;;;;;5075011;28;20201;-72
2023/06/29 06:34:06;;;;;;;1.30;0.70;;;13.70;83.10;;;;;;5074686;28;20225;-70
2023/06/29 06:36:34;;;;;;;2.83;1.10;;;13.50;84.90;;;;;;5077835;28;20179;-69
2023/06/29 06:39:01;;;;;;;2.17;0.87;;;13.50;86.60;;;;;;5074464;28;20190;-68
2023/06/29 06:41:29;;;;;;;2.80;1.20;;;13.50;90.20;;;;;;5074502;28;21017;-69
2023/06/29 06:43:57;;;;;;;2.60;1.40;;;13.40;90.40;;;;;;5072624;28;20191;-69
2023/06/29 06:46:24;;;;;;;3.80;1.57;;;13.40;91.30;;;;;;5074365;28;20181;-68
2023/06/29 06:48:51;;;;;;;1.53;1.13;;;13.20;93.90;;;;;;5074548;28;20570;-68
2023/06/29 06:51:19;;;;;;;4.40;1.87;;;13.10;96.50;;;;;;5074458;28;20186;-67
2023/06/29 06:53:46;;;;;;;3.57;1.67;;;13.10;97.40;;;;;;5074395;28;20325;-68
2023/06/29 06:56:14;;;;;;;3.80;1.73;;;13.00;98.90;;;;;;5074459;28;20237;-68
2023/06/29 06:58:41;;;;;;;4.60;2.10;;;12.90;99.90;;;;;;5073803;28;20183;-68
2023/06/29 07:01:09;;;;;;;6.10;1.60;;;12.90;99.90;;;;;;5073878;28;20206;-69
2023/06/29 07:03:36;;;;;;;2.53;1.33;;;12.80;99.90;;;;;;5072885;28;20264;-73
2023/06/29 07:06:04;;;;;;;4.40;0.90;;;12.70;99.90;;;;;;5074104;28;20186;-69
2023/06/29 07:08:32;;;;;;;2.07;1.13;;;12.60;99.90;;;;;;5074225;28;20654;-70
2023/06/29 07:10:59;;;;;;;2.17;1.07;;;12.60;99.90;;;;;;5073961;28;20265;-71
2023/06/29 07:13:27;;;;;;;4.13;1.20;;;12.60;99.90;;;;;;5073990;28;20755;-74
2023/06/29 07:15:55;;;;;;;3.50;1.07;;;12.40;99.90;;;;;;5073966;28;20184;-68
2023/06/29 07:18:22;;;;;;;1.43;1.13;;;12.40;99.90;;;;;;5073915;28;20581;-72
2023/06/29 07:20:50;;;;;;;2.67;1.27;;;12.30;99.90;;;;;;5073863;28;20181;-68
2023/06/29 07:23:17;;;;;;;2.73;1.10;;;12.20;99.90;;;;;;5073610;28;20219;-69
2023/06/29 07:25:45;;;;;;;5.03;1.30;;;12.10;99.90;;;;;;5066147;28;20588;-68
2023/06/29 07:28:15;;;;;;;4.47;1.40;;;12.00;99.90;;;;;;5073799;28;20188;-70
2023/06/29 07:30:45;;;;;;;4.17;1.30;;;11.80;99.90;;;;;;5074173;28;20260;-68
2023/06/29 07:33:13;;;;;;;2.60;1.50;;;11.70;99.90;;;;;;5073755;28;20205;-68
2023/06/29 07:35:40;;;;;;;4.97;1.43;;;11.70;99.90;;;;;;5073814;28;20641;-68
2023/06/29 07:38:07;;;;;;;6.07;1.50;;;11.70;99.90;;;;;;5073684;28;20273;-69
2023/06/29 07:40:35;;;;;;;4.13;1.60;;;11.50;99.90;;;;;;5073566;28;20177;-69
2023/06/29 07:43:02;;;;;;;1.57;1.13;;;11.50;99.90;;;;;;5073752;28;20174;-69
2023/06/29 07:45:29;;;;;;;3.97;1.23;;;11.50;99.90;;;;;;5073609;28;20205;-68
2023/06/29 07:47:57;;;;;;;3.40;1.00;;;11.50;99.90;;;;;;5073708;28;20172;-70
2023/06/29 07:50:24;;;;;;;4.30;1.80;;;11.40;99.90;;;;;;5073566;28;20177;-69
2023/06/29 07:52:51;;;;;;;3.93;2.20;;;11.40;99.90;;;;;;5073329;28;20180;-72
2023/06/29 07:55:19;;;;;;;4.67;1.80;;;11.40;99.90;;;;;;5072213;28;20757;-69
2023/06/29 07:57:47;;;;;;;5.20;1.60;;;11.40;99.90;;;;;;5073521;28;20185;-68
2023/06/29 08:00:15;;;;;;;7.53;1.30;;;11.40;99.90;;;;;;5073377;28;20185;-73
2023/06/29 08:02:42;;;;;;;4.87;1.20;;;11.30;99.90;;;;;;5073952;28;20226;-67
2023/06/29 08:05:10;;;;;;;1.20;1.00;;;11.40;99.90;;;;;;5073066;28;20223;-70
2023/06/29 08:07:37;;;;;;;1.60;1.00;;;11.40;99.90;;;;;;5073420;28;20574;-72
2023/06/29 08:10:05;;;;;;;2.70;1.20;;;11.40;99.90;;;;;;5073285;28;20176;-69
2023/06/29 08:12:32;;;;;;;3.77;0.83;;;11.40;99.90;;;;;;5073280;28;20173;-69
2023/06/29 08:14:59;;;;;;;2.97;1.30;;;11.40;99.90;;;;;;5072942;28;20578;-68
2023/06/29 08:17:27;;;;;;;5.30;1.30;;;11.40;99.90;;;;;;5072743;28;20236;-69
2023/06/29 08:19:54;;;;;;;2.40;1.00;;;11.30;99.90;;;;;;5073079;28;20239;-69
2023/06/29 08:22:23;;;;;;;1.50;1.13;;;11.30;99.90;;;;;;5072978;28;20201;-70
2023/06/29 08:24:51;;;;;;;6.23;1.67;;;11.30;99.90;;;;;;5071660;28;20244;-68
2023/06/29 08:27:19;;;;;;;2.20;1.07;;;11.30;99.90;;;;;;5072872;28;20185;-68
2023/06/29 08:29:47;;;;;;;1.50;1.00;;;11.20;99.90;;;;;;5072584;28;20188;-68
2023/06/29 08:32:15;;;;;;;2.47;1.10;;;11.10;99.90;;;;;;5072758;28;20188;-68
2023/06/29 08:34:42;;;;;;;2.13;1.23;;;11.10;99.90;;;;;;5072655;28;20216;-68
2023/06/29 08:37:09;;;;;;;1.77;1.13;;;11.00;99.90;;;;;;5072733;28;20173;-69
2023/06/29 08:39:37;;;;;;;3.13;1.23;;;10.90;99.90;;;;;;5071258;28;20666;-69
2023/06/29 08:42:05;;;;;;;4.13;1.43;;;10.80;99.90;;;;;;5072364;28;20185;-69
2023/06/29 08:44:33;;;;;;;3.90;1.50;;;10.60;99.90;;;;;;5072378;28;20182;-68
2023/06/29 08:47:02;;;;;;;1.20;1.10;;;10.40;99.90;;;;;;5072497;28;20180;-69
2023/06/29 08:49:31;;;;;;;2.27;1.07;;;10.30;99.90;;;;;;5071845;28;20183;-72
2023/06/29 08:52:05;;;;;;;2.87;1.30;;;10.20;99.90;;;;;;5072402;28;20181;-72
2023/06/29 08:54:34;;;;;;;2.30;1.40;;;10.00;99.90;;;;;;5070877;28;20733;-74
2023/06/29 08:57:05;;;;;;;2.53;1.20;;;9.90;99.90;;;;;;5072177;28;20179;-70
2023/06/29 08:59:34;;;;;;;1.07;1.00;;;9.90;99.90;;;;;;5072211;28;20176;-69
2023/06/29 09:02:03;;;;;;;5.03;1.53;;;9.90;99.90;;;;;;5072258;28;20173;-69
2023/06/29 09:04:30;;;;;;;1.97;1.47;;;9.70;99.90;;;;;;5072286;28;20603;-72
2023/06/29 09:06:57;;;;;;;2.50;1.53;;;9.70;99.90;;;;;;5072073;28;20176;-73
2023/06/29 09:09:26;;;;;;;2.83;1.20;;;9.60;99.90;;;;;;5072175;28;20268;-71
2023/06/29 09:11:55;;;;;;;1.30;1.10;;;9.50;99.90;;;;;;5071981;28;20630;-71
2023/06/29 09:14:24;;;;;;;2.20;0.90;;;9.50;99.90;;;;;;5072107;28;20684;-71
2023/06/29 09:16:54;;;;;;;2.37;1.50;;;9.60;99.90;;;;;;5071796;28;20304;-72
2023/06/29 09:19:24;;;;;;;1.60;1.20;;;9.60;99.90;;;;;;5071814;28;20237;-70
2023/06/29 09:21:52;;;;;;;1.20;1.10;;;9.70;99.90;;;;;;5071726;28;20184;-72
2023/06/29 09:24:19;;;;;;;1.60;1.03;;;9.60;99.90;;;;;;5071860;28;20176;-73
2023/06/29 09:26:53;;;;;;;0.90;0.90;;;9.60;99.90;;;;;;5071932;28;20186;-72
2023/06/29 09:29:21;;;;;;;2.60;1.10;;;9.40;99.90;;;;;;5071824;28;20180;-73
2023/06/29 09:32:14;;;;;;;1.03;0.93;;;9.40;99.90;;;;;;5071655;28;20219;-73
2023/06/29 09:34:46;;;;;;;1.63;1.07;;;9.40;99.90;;;;;;5069859;28;20217;-72
2023/06/29 09:37:17;;;;;;;2.93;1.20;;;9.30;99.90;;;;;;5071725;28;20554;-71
2023/06/29 09:40:05;;;;;;;5.27;1.40;;;9.30;99.90;;;;;;5073161;28;20227;-74
2023/06/29 09:42:38;;;;;;;3.27;1.40;;;9.40;99.90;;;;;;5073310;28;20587;-73
2023/06/29 09:45:14;;;;;;;5.03;1.40;;;9.40;99.90;;;;;;5073152;28;20210;-71
2023/06/29 09:47:53;;;;;;;1.20;1.10;;;9.30;99.90;;;;;;5073173;28;20180;-72
2023/06/29 09:50:22;;;;;;;2.17;1.00;;;9.40;99.90;;;;;;5073174;28;20174;-73
2023/06/29 09:52:54;;;;;;;1.70;1.13;;;9.30;99.90;;;;;;5073197;28;20172;-72
2023/06/29 09:55:30;;;;;;;1.70;1.30;;;9.20;99.90;;;;;;5072989;28;20187;-74
2023/06/29 09:57:57;;;;;;;2.27;1.50;;;9.20;99.90;;;;;;5073250;28;20168;-74
2023/06/29 10:00:27;;;;;;;2.33;1.23;;;9.10;99.90;;;;;;5072009;28;20649;-71
2023/06/29 10:02:55;;;;;;;1.57;1.10;;;9.00;99.90;;;;;;5072855;28;20226;-71
2023/06/29 10:05:23;;;;;;;1.53;1.00;;;8.80;99.90;;;;;;5073099;28;20215;-73
2023/06/29 10:07:53;;;;;;;1.40;1.20;;;8.70;99.90;;;;;;5073223;28;20171;-72
2023/06/29 10:10:23;;;;;;;0.97;0.97;;;8.70;99.90;;;;;;5072913;28;20168;-74
2023/06/29 10:12:55;;;;;;;4.70;1.43;;;8.70;99.90;;;;;;5072985;28;20528;-74
2023/06/29 10:15:25;;;;;;;3.37;1.13;;;8.60;99.90;;;;;;5072055;28;20290;-73
2023/06/29 10:18:17;;;;;;;4.43;1.90;;;8.50;99.90;;;;;;5072471;28;20236;-72
2023/06/29 10:20:45;;;;;;;10.70;4.20;;;8.50;99.90;;;;;;5072379;28;20178;-72
2023/06/29 10:23:15;;;;;;;18.00;7.57;;;8.50;99.90;;;;;;5072413;28;20539;-73
2023/06/29 10:25:46;;;;;;;3.97;1.43;;;8.40;99.90;;;;;;5072689;28;20274;-73
2023/06/29 10:28:15;;;;;;;1.17;1.07;;;8.40;99.90;;;;;;5072385;28;20184;-72
2023/06/29 10:30:52;;;;;;;2.57;1.23;;;8.40;99.90;;;;;;5076747;28;20178;-74
2023/06/29 10:33:23;;;;;;;1.63;1.10;;;8.40;99.90;;;;;;5072338;28;20240;-72
2023/06/29 10:35:58;;;;;;;1.40;1.07;;;8.30;99.90;;;;;;5072234;28;20238;-72
2023/06/29 10:38:43;;;;;;;2.57;1.40;;;8.20;99.90;;;;;;5072497;28;20266;-74
2023/06/29 10:41:26;;;;;;;1.63;1.00;;;8.10;99.90;;;;;;5071868;28;20721;-73
2023/06/29 10:44:01;;;;;;;1.53;1.10;;;8.00;99.90;;;;;;5072197;28;20173;-72
2023/06/29 10:46:49;;;;;;;2.40;1.13;;;8.00;99.90;;;;;;5072271;28;20179;-75
2023/06/29 10:49:25;;;;;;;1.47;1.13;;;7.90;99.90;;;;;;5072422;28;20183;-71
2023/06/29 10:51:54;;;;;;;1.83;1.43;;;7.80;99.90;;;;;;5072257;28;20167;-73
2023/06/29 10:54:25;;;;;;;2.50;1.47;;;7.80;99.90;;;;;;5070811;28;20219;-73
2023/06/29 10:57:02;;;;;;;1.80;1.13;;;7.70;99.90;;;;;;5071834;28;20253;-72
2023/06/29 10:59:31;;;;;;;1.97;1.47;;;7.60;99.90;;;;;;5072202;28;20203;-70
2023/06/29 11:01:59;;;;;;;2.37;1.30;;;7.60;99.90;;;;;;5071790;28;20186;-71
2023/06/29 11:04:28;;;;;;;3.73;1.30;;;7.40;99.90;;;;;;5072077;28;20187;-73
2023/06/29 11:06:55;;;;;;;4.70;1.70;;;7.40;99.90;;;;;;5071714;28;20521;-72
2023/06/29 11:09:23;;;;;;;1.63;1.33;;;7.40;99.90;;;;;;5070824;28;20180;-75
2023/06/29 11:11:50;;;;;;;1.83;1.30;;;7.30;99.90;;;;;;5073419;28;20169;-73
2023/06/29 11:14:19;;;;;;;3.07;1.40;;;7.30;99.90;;;;;;5075583;28;20215;-73
2023/06/29 11:16:47;;;;;;;1.57;1.47;;;7.30;99.90;;;;;;5075061;28;20314;-74
2023/06/29 11:19:14;;;;;;;1.50;1.40;;;7.20;99.90;;;;;;5075504;28;20601;-72
2023/06/29 11:21:41;;;;;;;3.13;1.50;;;7.20;99.90;;;;;;5075314;28;20180;-71
2023/06/29 11:24:11;;;;;;;1.77;1.60;;;7.10;99.90;;;;;;5073694;28;20186;-72
2023/06/29 11:26:39;;;;;;;3.27;1.70;;;7.10;99.90;;;;;;5075429;28;20180;-72
2023/06/29 11:29:09;;;;;;;2.27;1.60;;;7.10;99.90;;;;;;5074888;28;20269;-71
2023/06/29 11:31:36;;;;;;;2.40;1.43;;;7.00;99.90;;;;;;5075522;28;20175;-72
2023/06/29 11:34:04;;;;;;;2.23;1.43;;;7.00;99.90;;;;;;5075144;28;20328;-72
2023/06/29 11:36:36;;;;;;;2.00;1.80;;;7.00;99.90;;;;;;5075277;28;20577;-73
2023/06/29 11:39:12;;;;;;;4.40;1.80;;;7.00;99.90;;;;;;5075023;28;20218;-70
2023/06/29 11:41:41;;;;;;;5.00;2.00;;;7.00;99.90;;;;;;5075022;28;20263;-71
2023/06/29 11:44:08;;;;;;;1.87;1.70;;;6.90;99.90;;;;;;5075069;28;20226;-74
2023/06/29 11:46:36;;;;;;;3.30;1.80;;;6.90;99.90;;;;;;5075262;28;20172;-72
2023/06/29 11:49:05;;;;;;;2.27;1.67;;;6.90;99.90;;;;;;5074986;28;20638;-72
2023/06/29 11:51:38;;;;;;;4.03;2.17;;;6.90;99.90;;;;;;5075076;28;20172;-73
2023/06/29 11:54:06;;;;;;;2.77;2.00;;;6.80;99.90;;;;;;5074778;28;20211;-71
2023/06/29 11:56:38;;;;;;;2.23;1.87;;;6.70;99.90;;;;;;5074241;28;20188;-72
2023/06/29 11:59:10;;;;;;;2.30;1.97;;;6.70;99.90;;;;;;5074070;28;20184;-70
2023/06/29 12:01:38;;;;;;;1.93;1.77;;;6.70;99.90;;;;;;5074744;28;20164;-75
2023/06/29 12:04:06;;;;;;;3.53;2.07;;;6.60;99.90;;;;;;5074452;28;20267;-71
2023/06/29 12:06:37;;;;;;;3.13;2.30;;;6.50;99.90;;;;;;5074424;28;20254;-72
2023/06/29 12:09:13;;;;;;;3.03;2.37;;;6.40;99.90;;;;;;5074427;28;20638;-74
2023/06/29 12:11:41;;;;;;;3.27;2.37;;;6.30;99.90;;;;;;5074312;28;20219;-71
2023/06/29 12:14:11;;;;;;;4.57;1.90;;;6.20;99.90;;;;;;5074274;28;20208;-73
2023/06/29 12:16:42;;;;;;;3.60;2.10;;;6.20;99.90;;;;;;5073911;28;20228;-72
2023/06/29 12:19:13;;;;;;;3.33;2.40;;;6.10;99.90;;;;;;5074359;28;20180;-72
2023/06/29 12:21:41;;;;;;;2.53;2.17;;;6.10;99.90;;;;;;5074007;28;20637;-71
2023/06/29 12:24:08;;;;;;;2.70;2.13;;;6.00;99.90;;;;;;5073309;28;20187;-72
2023/06/29 12:26:35;;;;;;;3.07;1.97;;;6.00;99.90;;;;;;5074074;28;20649;-69
2023/06/29 12:29:03;;;;;;;3.03;2.10;;;6.00;99.90;;;;;;5073985;28;20172;-68
2023/06/29 12:31:30;;;;;;;5.63;2.00;;;5.90;99.90;;;;;;5073865;28;20207;-69
2023/06/29 12:33:57;;;;;;;2.37;1.93;;;5.90;99.90;;;;;;5073787;28;20226;-69
2023/06/29 12:36:26;;;;;;;3.80;2.20;;;5.90;99.90;;;;;;5073473;28;20183;-73
2023/06/29 12:38:54;;;;;;;2.90;2.07;;;5.80;99.90;;;;;;5073685;28;20210;-69
2023/06/29 12:41:21;;;;;;;4.27;2.00;;;5.70;99.90;;;;;;5073335;28;20275;-70
2023/06/29 12:43:50;;;;;;;5.03;2.67;;;5.70;99.90;;;;;;5073906;28;20191;-69
2023/06/29 12:46:19;;;;;;;2.30;2.10;;;5.70;99.90;;;;;;5073453;28;20184;-69
2023/06/29 12:48:46;;;;;;;5.97;2.33;;;5.60;99.90;;;;;;5073747;28;20189;-68
2023/06/29 12:51:14;;;;;;;4.03;2.00;;;5.60;99.90;;;;;;5073209;28;20183;-69
2023/06/29 12:53:42;;;;;;;2.47;2.00;;;5.60;99.90;;;;;;5073563;28;20635;-69
2023/06/29 12:56:09;;;;;;;4.90;2.10;;;5.60;99.90;;;;;;5073401;28;20637;-71
2023/06/29 12:58:37;;;;;;;2.30;1.93;;;5.70;99.90;;;;;;5073724;28;20641;-70